Arboles, Colorado
Current Conditions -  °F | °C
As of 3:53 PM on Sunday 21 Dec 2014 (Local Time) from KDRO Reporting Station
Clear Clear  
Wind Chill: 31°   Ceiling: Unl
Heat Index: 37°   Visibility: 10mi
Dew Point: 29°   Wind: 8mph
Humidity: 73%   Direction: 90°E
Pressure: 29.93"   Gusts: NA
Location:  37.03°N, 107.42°W
Report Text: KDRO 212253Z AUTO 09007KT 10SM CLR 03/M02 A2993 RMK AO2 SLP157 T00281017
Loading
Personal Weather Stations






























Interactive Weather Map New forecast layout! Learn more

10-Day Weather Forecast

Advertisements
Track Severe Weather on mobile